createdAt,value
2019-01-20T00:02:05.099Z,415.66
2019-01-20T00:03:19.818Z,415.72
2019-01-20T00:04:04.784Z,416.40
2019-01-20T00:06:17.397Z,413.71
2019-01-20T00:07:31.872Z,415.71
2019-01-20T00:10:15.484Z,414.73
2019-01-20T00:22:17.241Z,415.16
2019-01-20T00:23:17.425Z,414.92
2019-01-20T00:24:17.498Z,414.65
2019-01-20T00:29:28.942Z,414.80
2019-01-20T00:30:41.171Z,414.72
2019-01-20T00:33:04.116Z,414.88
2019-01-20T00:35:36.853Z,414.86
2019-01-20T00:37:49.099Z,412.49
2019-01-20T00:38:49.131Z,415.08
2019-01-20T00:39:49.089Z,414.40
2019-01-20T00:40:49.509Z,415.24
2019-01-20T00:41:49.001Z,414.15
2019-01-20T00:42:48.748Z,415.10
2019-01-20T00:43:48.659Z,414.45
2019-01-20T00:46:22.819Z,414.72
2019-01-20T00:47:23.491Z,414.24
2019-01-20T00:48:23.567Z,414.60
2019-01-20T00:49:25.528Z,415.52
2019-01-20T00:50:23.044Z,415.25
2019-01-20T00:51:23.333Z,415.12
2019-01-20T00:52:23.621Z,414.90
2019-01-20T00:53:39.552Z,415.32
2019-01-20T00:54:24.007Z,414.84
2019-01-20T00:55:24.063Z,414.81
2019-01-20T00:56:48.342Z,415.42
2019-01-20T00:57:22.725Z,415.31
2019-01-20T00:58:23.381Z,415.56
2019-01-20T00:59:26.857Z,416.24
2019-01-20T01:00:26.187Z,415.51
2019-01-20T01:01:24.299Z,415.02
2019-01-20T01:02:24.280Z,415.58
2019-01-20T01:03:22.727Z,415.82
2019-01-20T01:04:22.554Z,414.87
2019-01-20T01:06:47.411Z,415.89
2019-01-20T01:07:50.270Z,415.03
2019-01-20T01:08:47.464Z,414.83
2019-01-20T01:09:47.665Z,415.42
2019-01-20T01:10:47.644Z,415.23
2019-01-20T01:11:47.434Z,415.08
2019-01-20T01:12:57.104Z,416.10
2019-01-20T01:14:59.191Z,414.05
2019-01-20T01:19:07.434Z,415.18
2019-01-20T01:20:07.303Z,414.31
2019-01-20T01:21:07.795Z,413.94
2019-01-20T01:22:12.536Z,415.14
2019-01-20T01:23:09.131Z,415.22
2019-01-20T01:24:07.565Z,415.11
2019-01-20T01:25:07.293Z,415.15
2019-01-20T01:26:11.354Z,414.91
2019-01-20T01:27:21.537Z,415.16
2019-01-20T01:28:07.922Z,415.52
2019-01-20T01:29:08.516Z,415.02
2019-01-20T01:30:16.355Z,415.07
2019-01-20T01:31:07.891Z,415.63
2019-01-20T01:32:07.341Z,414.63
2019-01-20T01:33:07.349Z,415.31
2019-01-20T01:34:06.964Z,415.35
2019-01-20T01:35:07.050Z,415.04
2019-01-20T01:36:22.381Z,414.62
2019-01-20T01:41:39.552Z,415.20
2019-01-20T01:42:52.179Z,415.49
2019-01-20T01:43:41.222Z,414.48
2019-01-20T01:44:40.468Z,415.62
2019-01-20T01:45:41.234Z,415.13
2019-01-20T01:46:41.103Z,415.49
2019-01-20T01:47:55.330Z,416.03
2019-01-20T01:48:39.918Z,415.19
2019-01-20T01:51:09.069Z,415.49
2019-01-20T01:52:09.465Z,415.06
2019-01-20T01:53:10.625Z,415.46
2019-01-20T01:54:09.029Z,414.83
2019-01-20T01:55:09.510Z,414.45
2019-01-20T02:04:38.819Z,415.19
2019-01-20T02:05:56.930Z,415.18
2019-01-20T02:06:40.048Z,415.05
2019-01-20T02:08:17.733Z,415.37
2019-01-20T02:08:39.981Z,415.55
2019-01-20T02:09:40.049Z,415.14
2019-01-20T02:10:39.500Z,415.41
2019-01-20T02:11:46.595Z,415.05
2019-01-20T02:14:45.203Z,414.72
2019-01-20T02:15:51.846Z,415.43
2019-01-20T02:16:47.819Z,414.98
2019-01-20T02:17:50.870Z,415.81
2019-01-20T02:18:53.039Z,416.57
2019-01-20T02:19:45.936Z,415.05
2019-01-20T02:32:08.592Z,414.00
2019-01-20T02:36:33.456Z,414.03
2019-01-20T02:37:39.876Z,414.74
2019-01-20T02:38:34.960Z,414.26
2019-01-20T02:39:33.915Z,414.48
2019-01-20T02:40:33.830Z,414.71
2019-01-20T02:43:18.175Z,414.49
2019-01-20T02:45:52.423Z,414.76
2019-01-20T02:50:00.533Z,413.91
2019-01-20T02:56:01.047Z,413.34
2019-01-20T02:57:17.325Z,414.93
2019-01-20T02:59:29.760Z,415.12
2019-01-20T03:00:42.722Z,414.36
2019-01-20T03:12:05.929Z,413.99
2019-01-20T03:13:08.281Z,413.94
2019-01-20T03:14:13.976Z,413.73
2019-01-20T03:15:07.111Z,413.62
2019-01-20T03:16:06.280Z,414.62
2019-01-20T03:17:07.987Z,413.30
2019-01-20T03:18:06.052Z,413.95
2019-01-20T03:19:10.964Z,413.56
2019-01-20T03:20:05.880Z,415.29
2019-01-20T03:21:13.854Z,414.56
2019-01-20T03:22:07.388Z,414.01
2019-01-20T03:23:09.049Z,413.92
2019-01-20T03:25:49.824Z,414.44
2019-01-20T03:26:57.424Z,414.30
2019-01-20T03:27:49.683Z,414.37
2019-01-20T03:28:50.590Z,414.01
2019-01-20T03:29:50.540Z,414.75
2019-01-20T03:31:11.319Z,414.22
2019-01-20T03:31:49.726Z,414.11
2019-01-20T03:32:50.860Z,414.84
2019-01-20T03:33:58.318Z,415.29
2019-01-20T03:35:11.252Z,415.11
2019-01-20T03:35:51.320Z,414.67
2019-01-20T03:36:49.843Z,413.97
2019-01-20T03:37:49.641Z,414.46
2019-01-20T03:38:49.444Z,414.02
2019-01-20T03:39:53.196Z,414.12
2019-01-20T03:40:49.585Z,414.37
2019-01-20T03:41:51.410Z,414.72
2019-01-20T03:42:50.444Z,414.65
2019-01-20T03:43:51.427Z,414.15
2019-01-20T03:44:51.669Z,414.19
2019-01-20T03:46:14.421Z,414.35
2019-01-20T03:46:50.301Z,414.92
2019-01-20T03:50:56.324Z,414.74
2019-01-20T03:56:13.395Z,414.64
2019-01-20T03:59:29.248Z,414.10
2019-01-20T04:00:38.845Z,414.52
2019-01-20T04:04:52.478Z,413.58
2019-01-20T04:07:08.572Z,411.58
2019-01-20T04:08:08.634Z,413.74
2019-01-20T04:14:56.172Z,414.41
2019-01-20T04:17:34.340Z,415.29
2019-01-20T04:24:44.743Z,415.65
2019-01-20T04:25:40.272Z,415.60
2019-01-20T04:26:39.430Z,414.96
2019-01-20T04:27:39.318Z,415.35
2019-01-20T04:28:41.943Z,414.78
2019-01-20T04:29:42.824Z,414.90
2019-01-20T04:30:40.255Z,415.13
2019-01-20T04:31:39.909Z,414.80
2019-01-20T04:32:43.130Z,414.90
2019-01-20T04:33:42.085Z,414.79
2019-01-20T04:34:41.665Z,413.87
2019-01-20T04:35:41.716Z,415.32
2019-01-20T04:39:08.680Z,414.52
2019-01-20T04:43:50.988Z,414.15
2019-01-20T04:46:38.173Z,414.55
2019-01-20T04:47:39.902Z,415.17
2019-01-20T04:48:37.939Z,414.62
2019-01-20T04:49:38.919Z,414.62
2019-01-20T04:56:23.587Z,413.31
2019-01-20T04:57:28.152Z,414.91
2019-01-20T04:58:24.073Z,414.63
2019-01-20T04:59:24.572Z,414.41
2019-01-20T05:00:24.301Z,415.44
2019-01-20T05:01:25.396Z,414.19
2019-01-20T05:02:24.724Z,414.75
2019-01-20T05:05:19.172Z,414.69
2019-01-20T05:08:25.730Z,414.07
2019-01-20T05:09:35.868Z,414.63
2019-01-20T05:10:28.125Z,413.67
2019-01-20T05:13:17.250Z,414.10
2019-01-20T05:14:17.437Z,413.96
2019-01-20T05:15:17.296Z,414.35
2019-01-20T05:16:18.010Z,414.25
2019-01-20T05:17:17.376Z,413.99
2019-01-20T05:18:17.125Z,414.50
2019-01-20T05:19:17.341Z,413.72
2019-01-20T05:21:18.752Z,411.44
2019-01-20T05:26:02.429Z,414.33
2019-01-20T05:27:10.349Z,413.85
2019-01-20T05:41:05.896Z,413.76
2019-01-20T05:44:05.850Z,413.67
2019-01-20T05:55:07.696Z,414.20
2019-01-20T05:56:09.080Z,414.63
2019-01-20T05:58:50.641Z,413.88
2019-01-20T05:59:50.758Z,414.22
2019-01-20T06:02:23.242Z,415.19
2019-01-20T06:05:05.357Z,414.12
2019-01-20T06:07:36.192Z,413.87
2019-01-20T06:09:54.324Z,412.31
2019-01-20T06:10:54.794Z,414.70
2019-01-20T06:11:54.430Z,414.17
2019-01-20T06:15:33.627Z,414.64
2019-01-20T06:16:34.909Z,414.49
2019-01-20T06:17:35.798Z,413.97
2019-01-20T06:18:35.457Z,413.73
2019-01-20T06:19:56.544Z,414.06
2019-01-20T06:20:33.854Z,413.57
2019-01-20T06:26:51.646Z,413.57
2019-01-20T07:19:55.281Z,414.17
2019-01-20T07:20:55.345Z,414.47
2019-01-20T07:21:56.814Z,414.40
2019-01-20T07:22:55.278Z,414.67
2019-01-20T07:23:56.325Z,414.02
2019-01-20T07:25:11.893Z,413.80
2019-01-20T07:25:59.102Z,413.91
2019-01-20T07:26:58.065Z,413.89
2019-01-20T07:27:55.362Z,414.89
2019-01-20T07:29:07.110Z,414.77
2019-01-20T07:30:00.195Z,413.87
2019-01-20T07:36:30.445Z,413.89
2019-01-20T07:43:30.827Z,413.30
2019-01-20T07:45:51.915Z,412.55
2019-01-20T07:46:52.176Z,413.97
2019-01-20T07:49:12.672Z,412.38
2019-01-20T07:53:25.077Z,414.53
2019-01-20T07:56:04.154Z,413.80
2019-01-20T07:59:13.458Z,415.07
2019-01-20T08:00:14.287Z,414.14
2019-01-20T08:01:13.404Z,414.60
2019-01-20T08:02:13.402Z,414.86
2019-01-20T08:03:24.004Z,414.59
2019-01-20T08:04:13.505Z,414.45
2019-01-20T08:05:14.305Z,415.02
2019-01-20T08:08:53.742Z,415.19
2019-01-20T08:16:50.839Z,413.73
2019-01-20T08:17:48.706Z,413.74
2019-01-20T08:18:40.977Z,414.15
2019-01-20T08:19:41.015Z,413.52
2019-01-20T08:20:40.950Z,414.02
2019-01-20T08:21:41.221Z,413.78
2019-01-20T08:22:41.779Z,414.08
2019-01-20T08:23:55.772Z,413.78
2019-01-20T08:24:43.931Z,414.34
2019-01-20T08:25:58.438Z,413.70
2019-01-20T08:26:40.506Z,413.69
2019-01-20T08:27:51.725Z,413.44
2019-01-20T08:29:43.358Z,413.47
2019-01-20T08:30:43.584Z,413.71
2019-01-20T08:37:31.257Z,413.45
2019-01-20T08:38:32.179Z,413.13
2019-01-20T08:48:26.310Z,414.40
2019-01-20T08:50:59.858Z,414.30
2019-01-20T08:52:01.139Z,414.29
2019-01-20T08:53:01.137Z,413.68
2019-01-20T08:54:06.715Z,414.24
2019-01-20T08:55:37.308Z,414.06
2019-01-20T08:56:15.369Z,413.63
2019-01-20T09:09:31.444Z,414.18
2019-01-20T09:10:46.585Z,415.20
2019-01-20T09:11:31.663Z,416.89
2019-01-20T09:12:48.318Z,416.45
2019-01-20T09:13:39.230Z,416.11
2019-01-20T09:14:38.728Z,417.22
2019-01-20T09:15:31.601Z,415.74
2019-01-20T09:16:31.459Z,415.56
2019-01-20T09:17:31.499Z,414.76
2019-01-20T09:18:32.083Z,415.36
2019-01-20T09:19:32.957Z,415.71
2019-01-20T09:20:31.995Z,415.26
2019-01-20T09:21:32.431Z,416.99
2019-01-20T09:24:02.780Z,415.95
2019-01-20T09:25:14.241Z,414.73
2019-01-20T09:29:17.299Z,415.78
2019-01-20T09:30:19.361Z,415.67
2019-01-20T09:31:22.528Z,415.06
2019-01-20T09:32:16.334Z,415.36
2019-01-20T09:33:24.327Z,415.00
2019-01-20T09:34:29.531Z,415.66
2019-01-20T09:35:17.955Z,415.24
2019-01-20T09:36:32.436Z,415.32
2019-01-20T09:37:16.048Z,415.24
2019-01-20T09:38:15.799Z,415.67
2019-01-20T09:39:15.970Z,415.86
2019-01-20T09:41:31.163Z,414.25
2019-01-20T09:42:31.422Z,415.42
2019-01-20T09:43:31.073Z,415.40
2019-01-20T09:44:32.570Z,416.16
2019-01-20T09:45:31.191Z,415.52
2019-01-20T09:46:31.291Z,415.16
2019-01-20T09:47:32.612Z,415.76
2019-01-20T09:48:30.994Z,416.56
2019-01-20T09:49:32.195Z,415.95
2019-01-20T09:50:31.518Z,416.81
2019-01-20T09:51:30.816Z,415.86
2019-01-20T09:52:30.793Z,416.68
2019-01-20T09:53:33.586Z,416.99
2019-01-20T09:56:22.585Z,415.88
2019-01-20T09:57:22.467Z,415.61
2019-01-20T09:58:22.740Z,416.05
2019-01-20T09:59:23.687Z,416.00
2019-01-20T10:00:43.272Z,415.93
2019-01-20T10:01:22.184Z,416.15
2019-01-20T10:02:23.844Z,415.57
2019-01-20T10:05:13.891Z,416.13
2019-01-20T10:06:14.688Z,415.74
2019-01-20T10:07:14.650Z,416.87
2019-01-20T10:08:13.468Z,416.66
2019-01-20T10:09:14.006Z,416.11
2019-01-20T10:10:13.400Z,415.99
2019-01-20T10:11:13.335Z,416.32
2019-01-20T10:12:13.346Z,415.52
2019-01-20T10:13:13.289Z,415.52
2019-01-20T10:14:13.925Z,415.88
2019-01-20T10:15:13.420Z,415.27
2019-01-20T10:16:13.287Z,415.82
2019-01-20T10:17:13.278Z,415.45
2019-01-20T10:18:13.256Z,415.15
2019-01-20T10:19:13.211Z,414.99
2019-01-20T10:20:14.112Z,414.45
2019-01-20T10:21:13.239Z,414.82
2019-01-20T10:22:13.294Z,415.82
2019-01-20T10:23:13.202Z,415.51
2019-01-20T10:24:13.935Z,414.95
2019-01-20T10:25:15.198Z,415.10
2019-01-20T10:26:25.436Z,415.22
2019-01-20T10:36:55.498Z,413.78
2019-01-20T10:38:06.243Z,415.27
2019-01-20T10:38:55.398Z,415.54
2019-01-20T10:39:56.080Z,415.71
2019-01-20T10:41:09.454Z,414.85
2019-01-20T10:43:30.149Z,414.98
2019-01-20T10:49:55.792Z,413.17
2019-01-20T10:52:25.164Z,413.61
2019-01-20T10:53:25.247Z,414.93
2019-01-20T10:54:24.622Z,414.41
2019-01-20T10:55:30.983Z,415.42
2019-01-20T10:56:24.897Z,413.63
2019-01-20T11:04:30.110Z,415.35
2019-01-20T11:07:34.661Z,414.68
2019-01-20T11:08:33.479Z,415.18
2019-01-20T11:09:36.582Z,414.14
2019-01-20T11:10:43.148Z,415.02
2019-01-20T11:11:33.400Z,414.66
2019-01-20T11:12:33.569Z,414.14
2019-01-20T11:13:33.278Z,414.54
2019-01-20T11:14:32.841Z,414.85
2019-01-20T11:15:34.993Z,415.78
2019-01-20T11:16:33.793Z,415.63
2019-01-20T11:17:32.909Z,415.74
2019-01-20T11:18:32.841Z,413.15
2019-01-20T11:24:31.401Z,415.34
2019-01-20T11:25:31.011Z,415.26
2019-01-20T11:26:30.689Z,414.75
2019-01-20T11:27:31.785Z,414.19
2019-01-20T11:28:30.633Z,415.95
2019-01-20T11:29:30.650Z,415.92
2019-01-20T11:30:39.425Z,412.15
2019-01-20T11:31:30.941Z,413.93
2019-01-20T11:34:34.811Z,413.35
2019-01-20T11:38:20.089Z,414.13
2019-01-20T11:43:41.715Z,415.01
2019-01-20T11:46:36.172Z,414.83
2019-01-20T11:49:33.824Z,414.55
2019-01-20T11:50:33.727Z,415.05
2019-01-20T11:51:34.492Z,414.48
2019-01-20T11:52:33.845Z,416.97
2019-01-20T11:58:09.546Z,416.43
2019-01-20T11:59:24.336Z,415.35
2019-01-20T12:00:41.942Z,414.22
2019-01-20T12:04:21.664Z,418.89
2019-01-20T12:05:21.477Z,415.94
2019-01-20T12:06:21.696Z,417.36
2019-01-20T12:08:53.063Z,415.96
2019-01-20T12:09:53.002Z,415.56
2019-01-20T12:10:53.896Z,414.59
2019-01-20T12:11:53.074Z,414.54
2019-01-20T12:12:54.097Z,411.38
2019-01-20T12:13:53.091Z,414.84
2019-01-20T12:14:53.784Z,416.43
2019-01-20T12:15:52.862Z,415.37
2019-01-20T12:16:52.705Z,415.44
2019-01-20T12:17:52.980Z,415.11
2019-01-20T12:18:52.391Z,416.60
2019-01-20T12:19:52.408Z,414.99
2019-01-20T12:20:52.271Z,413.18
2019-01-20T12:21:52.304Z,412.15
2019-01-20T12:22:52.282Z,415.19
2019-01-20T12:23:52.240Z,412.83
2019-01-20T12:24:53.034Z,414.27
2019-01-20T12:25:52.707Z,412.68
2019-01-20T12:26:55.143Z,415.60
2019-01-20T12:27:52.399Z,413.52
2019-01-20T12:29:02.909Z,416.33
2019-01-20T12:29:53.679Z,411.60
2019-01-20T12:30:52.098Z,414.49
2019-01-20T12:31:52.198Z,414.45
2019-01-20T12:32:52.721Z,411.23
2019-01-20T12:33:53.061Z,415.13
2019-01-20T12:34:52.058Z,413.21
2019-01-20T12:35:52.957Z,414.43
2019-01-20T12:36:52.082Z,414.52
2019-01-20T12:37:51.973Z,412.56
2019-01-20T12:38:51.922Z,414.60
2019-01-20T12:39:51.992Z,413.69
2019-01-20T12:40:52.641Z,416.01
2019-01-20T12:41:52.197Z,413.97
2019-01-20T12:42:51.891Z,414.12
2019-01-20T12:43:52.089Z,415.94
2019-01-20T12:44:51.908Z,413.17
2019-01-20T12:45:51.914Z,411.60
2019-01-20T12:46:52.000Z,414.32
2019-01-20T12:50:35.234Z,409.52
2019-01-20T12:51:33.384Z,415.68
2019-01-20T12:52:34.178Z,412.68
2019-01-20T12:53:34.034Z,413.76
2019-01-20T12:54:42.621Z,409.55
2019-01-20T12:55:34.818Z,415.00
2019-01-20T12:56:33.312Z,410.55
2019-01-20T12:57:33.244Z,417.31
2019-01-20T12:58:33.265Z,413.34
2019-01-20T12:59:33.600Z,409.46
2019-01-20T13:00:33.868Z,412.45
2019-01-20T13:01:33.813Z,413.75
2019-01-20T13:02:32.714Z,413.50
2019-01-20T13:04:56.417Z,409.62
2019-01-20T13:05:51.110Z,413.47
2019-01-20T13:06:50.852Z,412.82
2019-01-20T13:07:50.758Z,412.54
2019-01-20T13:08:50.427Z,413.23
2019-01-20T13:09:50.926Z,409.21
2019-01-20T13:10:51.015Z,413.26
2019-01-20T13:11:58.201Z,410.90
2019-01-20T13:14:02.361Z,402.50
2019-01-20T13:17:39.152Z,412.10
2019-01-20T13:18:39.756Z,413.94
2019-01-20T13:19:38.851Z,407.32
2019-01-20T13:23:17.282Z,412.03
2019-01-20T13:24:32.346Z,407.68
2019-01-20T13:25:29.198Z,413.12
2019-01-20T13:27:29.590Z,411.73
2019-01-20T13:28:29.159Z,409.81
2019-01-20T13:29:29.040Z,411.58
2019-01-20T13:30:28.959Z,410.93
2019-01-20T13:31:30.280Z,409.05
2019-01-20T13:32:28.749Z,412.36
2019-01-20T13:34:49.360Z,410.01
2019-01-20T13:39:29.207Z,401.50
2019-01-20T13:40:36.799Z,410.12
2019-01-20T13:41:28.736Z,403.03
2019-01-20T13:42:28.696Z,414.20
2019-01-20T13:43:29.299Z,412.11
2019-01-20T13:44:28.757Z,413.10
2019-01-20T13:45:28.604Z,408.41
2019-01-20T13:46:30.326Z,406.88
2019-01-20T13:47:28.299Z,413.20
2019-01-20T13:48:27.869Z,412.48
2019-01-20T13:50:49.879Z,410.33
2019-01-20T13:51:50.065Z,413.80
2019-01-20T13:52:50.537Z,412.63
2019-01-20T13:54:45.609Z,413.54
2019-01-20T13:55:45.393Z,410.93
2019-01-20T13:56:47.254Z,413.86
2019-01-20T13:57:48.830Z,414.62
2019-01-20T13:58:56.081Z,414.34
2019-01-20T14:01:05.283Z,412.28
2019-01-20T14:03:43.675Z,416.07
2019-01-20T14:06:02.630Z,414.16
2019-01-20T14:07:14.199Z,416.41
2019-01-20T14:08:03.413Z,414.52
2019-01-20T14:09:02.583Z,414.57
2019-01-20T14:10:02.624Z,414.75
2019-01-20T14:11:03.086Z,414.95
2019-01-20T14:12:02.416Z,416.57
2019-01-20T14:13:02.153Z,414.90
2019-01-20T14:14:02.699Z,415.27
2019-01-20T14:15:02.361Z,416.74
2019-01-20T14:16:02.838Z,415.32
2019-01-20T14:17:02.706Z,416.65
2019-01-20T14:18:01.788Z,413.90
2019-01-20T14:19:01.789Z,412.69
2019-01-20T14:20:01.710Z,411.92
2019-01-20T14:21:01.725Z,413.96
2019-01-20T14:23:33.937Z,417.22
2019-01-20T14:24:34.443Z,417.26
2019-01-20T14:25:33.693Z,417.73
2019-01-20T14:26:34.151Z,414.04
2019-01-20T14:27:33.770Z,414.86
2019-01-20T14:28:46.509Z,416.12
2019-01-20T14:31:00.437Z,412.60
2019-01-20T14:34:39.545Z,413.85
2019-01-20T14:35:39.654Z,414.36
2019-01-20T14:36:39.713Z,415.04
2019-01-20T14:37:39.575Z,415.33
2019-01-20T14:38:39.221Z,414.70
2019-01-20T14:39:39.260Z,415.88
2019-01-20T14:40:38.892Z,415.22
2019-01-20T14:41:39.104Z,414.35
2019-01-20T14:42:39.071Z,415.32
2019-01-20T14:43:47.804Z,415.83
2019-01-20T14:44:49.491Z,416.15
2019-01-20T14:46:52.811Z,415.34
2019-01-20T14:48:03.752Z,417.19
2019-01-20T14:58:14.072Z,416.60
2019-01-20T14:59:15.191Z,417.95
2019-01-20T15:00:14.209Z,418.37
2019-01-20T15:02:24.951Z,415.45
2019-01-20T15:03:25.029Z,419.79
2019-01-20T15:04:24.375Z,423.84
2019-01-20T15:05:24.926Z,418.56
2019-01-20T15:06:23.850Z,417.52
2019-01-20T15:07:23.981Z,418.66
2019-01-20T15:08:23.858Z,418.38
2019-01-20T15:09:24.169Z,418.81
2019-01-20T15:10:23.533Z,419.05
2019-01-20T15:11:23.331Z,418.93
2019-01-20T15:12:23.360Z,419.43
2019-01-20T15:13:23.299Z,419.20
2019-01-20T15:14:23.287Z,419.67
2019-01-20T15:15:23.371Z,418.83
2019-01-20T15:16:57.189Z,419.08
2019-01-20T15:20:19.307Z,418.52
2019-01-20T15:28:26.049Z,420.33
2019-01-20T15:31:32.696Z,420.10
2019-01-20T15:34:22.323Z,419.17
2019-01-20T15:35:22.318Z,420.44
2019-01-20T15:36:22.269Z,418.88
2019-01-20T15:37:22.008Z,418.73
2019-01-20T15:38:22.293Z,419.12
2019-01-20T15:39:22.405Z,421.94
2019-01-20T15:40:21.634Z,420.38
2019-01-20T15:42:37.294Z,418.61
2019-01-20T15:43:36.225Z,419.66
2019-01-20T15:44:36.228Z,419.20
2019-01-20T15:45:38.116Z,419.71
2019-01-20T15:46:35.754Z,419.23
2019-01-20T15:47:37.074Z,420.26
2019-01-20T15:48:35.787Z,419.67
2019-01-20T15:49:35.598Z,418.95
2019-01-20T15:50:36.486Z,419.12
2019-01-20T15:53:59.054Z,420.58
2019-01-20T15:54:37.886Z,421.59
2019-01-20T15:58:16.962Z,420.05
2019-01-20T15:59:14.120Z,419.48
2019-01-20T16:00:14.153Z,420.35
2019-01-20T16:01:14.062Z,420.06
2019-01-20T16:03:33.103Z,420.17
2019-01-20T16:04:33.691Z,421.46
2019-01-20T16:07:46.935Z,419.52
2019-01-20T16:08:47.216Z,418.86
2019-01-20T16:09:46.927Z,419.55
2019-01-20T16:10:46.351Z,419.85
2019-01-20T16:12:14.854Z,419.77
2019-01-20T16:12:46.797Z,419.93
2019-01-20T16:13:46.570Z,418.54
2019-01-20T16:16:15.282Z,419.60
2019-01-20T16:17:15.772Z,419.03
2019-01-20T16:18:15.163Z,418.33
2019-01-20T16:19:23.771Z,419.61
2019-01-20T16:20:14.571Z,419.23
2019-01-20T16:21:15.902Z,419.96
2019-01-20T16:22:14.500Z,420.56
2019-01-20T16:23:14.386Z,418.58
2019-01-20T16:24:14.792Z,418.73
2019-01-20T16:25:17.037Z,420.20
2019-01-20T16:26:14.891Z,419.68
2019-01-20T16:40:18.651Z,418.98
2019-01-20T16:49:46.780Z,417.68
2019-01-20T16:55:22.410Z,417.91
2019-01-20T16:58:42.766Z,419.31
2019-01-20T17:05:07.581Z,419.28
2019-01-20T17:06:08.301Z,418.69
2019-01-20T17:07:08.058Z,418.33
2019-01-20T17:08:07.616Z,418.95
2019-01-20T17:09:08.150Z,418.38
2019-01-20T17:10:24.586Z,418.68
2019-01-20T17:22:34.236Z,419.78
2019-01-20T17:26:26.505Z,418.70
2019-01-20T17:27:26.405Z,417.91
2019-01-20T17:28:26.503Z,419.24
2019-01-20T17:29:26.826Z,418.84
2019-01-20T17:30:26.502Z,420.39
2019-01-20T17:31:28.581Z,419.00
2019-01-20T17:32:26.131Z,419.65
2019-01-20T17:33:26.186Z,418.34
2019-01-20T17:34:26.643Z,418.09
2019-01-20T17:35:25.581Z,418.71
2019-01-20T17:36:26.641Z,418.28
2019-01-20T17:37:25.458Z,419.38
2019-01-20T17:38:26.262Z,420.73
2019-01-20T17:39:26.235Z,418.83
2019-01-20T17:40:25.871Z,420.18
2019-01-20T17:41:26.281Z,418.85
2019-01-20T17:42:25.589Z,418.86
2019-01-20T17:43:25.577Z,419.33
2019-01-20T17:44:25.733Z,418.01
2019-01-20T17:47:53.583Z,414.90
2019-01-20T17:49:00.960Z,417.87
2019-01-20T17:51:16.190Z,418.38
2019-01-20T17:52:17.529Z,417.85
2019-01-20T17:53:16.584Z,417.15
2019-01-20T17:54:16.557Z,418.07
2019-01-20T17:55:15.940Z,418.68
2019-01-20T17:56:16.331Z,419.11
2019-01-20T17:57:15.911Z,418.83
2019-01-20T17:58:15.693Z,418.26
2019-01-20T17:59:15.698Z,419.32
2019-01-20T18:00:15.773Z,419.52
2019-01-20T18:01:15.619Z,418.82
2019-01-20T18:02:17.030Z,418.52
2019-01-20T18:03:15.636Z,418.52
2019-01-20T18:04:15.641Z,418.88
2019-01-20T18:05:15.652Z,418.75
2019-01-20T18:06:15.584Z,418.85
2019-01-20T18:07:16.241Z,418.70
2019-01-20T18:08:15.697Z,418.55
2019-01-20T18:09:15.676Z,418.48
2019-01-20T18:10:15.676Z,419.20
2019-01-20T18:11:15.585Z,419.09
2019-01-20T18:12:15.550Z,418.39
2019-01-20T18:13:15.505Z,418.59
2019-01-20T18:14:15.520Z,418.61
2019-01-20T18:15:15.783Z,419.28
2019-01-20T18:16:15.535Z,418.73
2019-01-20T18:17:15.645Z,418.43
2019-01-20T18:18:15.569Z,417.75
2019-01-20T18:19:25.307Z,418.48
2019-01-20T18:21:28.054Z,417.76
2019-01-20T18:22:27.936Z,418.43
2019-01-20T18:23:27.733Z,418.73
2019-01-20T18:24:28.014Z,419.74
2019-01-20T18:25:27.192Z,418.87
2019-01-20T18:26:28.584Z,418.75
2019-01-20T18:27:27.115Z,420.58
2019-01-20T18:28:27.082Z,419.90
2019-01-20T18:29:27.074Z,419.42
2019-01-20T18:30:27.047Z,419.52
2019-01-20T18:31:27.005Z,420.15
2019-01-20T18:32:27.002Z,419.78
2019-01-20T18:33:26.985Z,420.55
2019-01-20T18:34:27.943Z,418.89
2019-01-20T18:35:27.031Z,419.23
2019-01-20T18:37:42.971Z,416.98
2019-01-20T18:38:42.641Z,418.44
2019-01-20T18:39:42.337Z,418.65
2019-01-20T18:40:42.171Z,419.44
2019-01-20T18:41:42.478Z,418.38
2019-01-20T18:42:41.900Z,419.11
2019-01-20T18:43:41.937Z,418.53
2019-01-20T18:44:42.038Z,418.27
2019-01-20T18:45:44.053Z,418.74
2019-01-20T18:46:42.605Z,417.45
2019-01-20T18:47:42.917Z,419.68
2019-01-20T18:48:41.958Z,420.15
2019-01-20T18:49:42.805Z,419.55
2019-01-20T18:50:42.046Z,419.77
2019-01-20T18:51:44.802Z,418.68
2019-01-20T18:52:53.505Z,419.30
2019-01-20T18:53:53.650Z,419.02
2019-01-20T19:01:38.009Z,418.33
2019-01-20T19:02:37.717Z,418.21
2019-01-20T19:03:41.837Z,419.24
2019-01-20T19:04:38.355Z,419.10
2019-01-20T19:05:43.056Z,418.46
2019-01-20T19:06:37.572Z,418.45
2019-01-20T19:07:37.581Z,418.09
2019-01-20T19:08:39.435Z,418.07
2019-01-20T19:11:07.354Z,418.49
2019-01-20T19:12:14.248Z,418.16
2019-01-20T19:29:56.524Z,417.74
2019-01-20T19:54:19.792Z,417.80
2019-01-20T19:56:38.851Z,416.67
2019-01-20T19:57:40.272Z,418.58
2019-01-20T19:58:41.046Z,417.27
2019-01-20T20:02:13.480Z,417.62
2019-01-20T20:06:29.329Z,417.50
2019-01-20T20:51:34.460Z,417.51
2019-01-20T20:52:34.433Z,417.90
2019-01-20T20:53:35.117Z,417.83
2019-01-20T20:54:37.889Z,418.00
2019-01-20T20:55:49.822Z,418.24
2019-01-20T20:56:35.119Z,417.84
2019-01-20T20:57:34.347Z,416.76
2019-01-20T20:59:53.506Z,415.95
2019-01-20T21:00:54.518Z,418.22
2019-01-20T21:03:24.485Z,418.53
2019-01-20T21:09:47.219Z,417.58
2019-01-20T21:12:26.338Z,417.43
2019-01-20T21:15:21.930Z,417.38
2019-01-20T21:17:38.251Z,416.87
2019-01-20T21:18:37.136Z,417.98
2019-01-20T21:19:37.059Z,416.84
2019-01-20T21:20:37.039Z,417.50
2019-01-20T21:21:57.790Z,417.56
2019-01-20T21:23:54.631Z,415.67
2019-01-20T21:24:54.476Z,418.73
2019-01-20T21:25:54.674Z,417.65
2019-01-20T21:26:54.547Z,417.88
2019-01-20T21:27:54.350Z,418.11
2019-01-20T21:28:54.552Z,417.62
2019-01-20T21:29:54.558Z,418.28
2019-01-20T21:32:35.949Z,417.24
2019-01-20T21:33:50.621Z,416.92
2019-01-20T21:35:48.871Z,416.06
2019-01-20T21:38:06.575Z,416.29
2019-01-20T21:39:00.996Z,418.38
2019-01-20T21:39:59.987Z,418.06
2019-01-20T21:42:19.405Z,416.84
2019-01-20T21:43:18.770Z,417.80
2019-01-20T21:44:19.616Z,418.10
2019-01-20T21:45:18.906Z,418.07
2019-01-20T21:46:19.907Z,418.31
2019-01-20T21:47:19.993Z,417.30
2019-01-20T21:48:21.271Z,418.34
2019-01-20T21:49:18.017Z,416.96
2019-01-20T21:50:17.961Z,418.16
2019-01-20T21:51:18.067Z,417.97
2019-01-20T21:53:59.205Z,417.63
2019-01-20T21:57:39.214Z,418.49
2019-01-20T22:03:03.578Z,418.08
2019-01-20T22:04:03.539Z,418.53
2019-01-20T22:05:06.625Z,417.86
2019-01-20T22:06:02.844Z,418.71
2019-01-20T22:07:02.997Z,418.03
2019-01-20T22:08:03.212Z,417.63
2019-01-20T22:09:03.645Z,418.62
2019-01-20T22:10:03.174Z,417.48
2019-01-20T22:11:02.976Z,417.14
2019-01-20T22:12:05.025Z,417.54
2019-01-20T22:13:03.053Z,417.51
2019-01-20T22:15:23.460Z,415.71
2019-01-20T22:17:48.560Z,417.89
2019-01-20T22:18:48.440Z,418.22
2019-01-20T22:19:49.137Z,418.50
2019-01-20T22:20:50.501Z,417.18
2019-01-20T22:21:49.705Z,417.77
2019-01-20T22:24:35.991Z,417.26
2019-01-20T22:28:05.586Z,417.98
2019-01-20T22:37:45.131Z,418.23
2019-01-20T23:16:07.977Z,418.25
2019-01-20T23:17:07.657Z,418.23
2019-01-20T23:18:03.681Z,419.78
2019-01-20T23:27:33.645Z,418.01
2019-01-20T23:28:40.175Z,417.76
2019-01-20T23:31:16.268Z,419.15
2019-01-20T23:32:16.958Z,417.68
2019-01-20T23:40:46.083Z,418.87
2019-01-20T23:41:55.307Z,419.60
2019-01-20T23:42:46.874Z,419.91
